Johann Jacob — A8XD7 — position and weather

sailwx.info

Track history (hours):
 
Tides and Currents Weather Stations Pressure Air Temp Water Temp Dewpoint Dewpoint Depression Visibility Wind Speed Wind Dir Waves Ship Positions

Johann Jacob

Last reported at 2018-Apr-13 13:12 UTC. Time now 2018-Jun-25 00:30 UTC.
Position N 31°22' E 032°19'.
Warning: this ship's position is months out of date.

Length 227 m; draft 7.5 m.

Type: Tanker. MMSI: 636092124.

Date/timePositionNaut miles runAvg speedWind from/ knotsBaromVisibWave heightAir tempDewpointWater temp
2018-Apr-13 13:12N 31°22' E 032°19'0 1.4
2018-Apr-13 13:00N 31°22' E 032°19'6 5.8
2018-Apr-13 11:57N 31°28' E 032°17'6 9.6
2018-Apr-13 11:19N 31°32' E 032°12'2 7.5
2018-Apr-13 11:00N 31°34' E 032°10'1711.6
2018-Apr-13 09:30N 31°47' E 031°56'1611.9
2018-Apr-13 08:10N 31°59' E 031°44'212.0
2018-Apr-13 07:59N 32°01' E 031°42'  
2018-Apr-09 11:16N 36°09' E 014°43'414.5
2018-Apr-09 10:59N 36°10' E 014°38'510.1
2018-Apr-09 10:28N 36°12' E 014°32'712.9
2018-Apr-09 09:58N 36°14' E 014°24'511.3
2018-Apr-09 09:30N 36°15' E 014°18'713.5
2018-Apr-09 09:00N 36°17' E 014°10'611.7
2018-Apr-09 08:30N 36°20' E 014°04'611.8
2018-Apr-09 07:58N 36°22' E 013°57'612.1
2018-Apr-09 07:30N 36°25' E 013°50'713.3
2018-Apr-09 06:58N 36°27' E 013°42'1210.9
2018-Apr-09 05:52N 36°32' E 013°28'  
2018-Apr-06 18:07N 37°21' E 004°15'2 8.7
2018-Apr-06 17:56N 37°21' E 004°13'49 9.3
2018-Apr-06 12:43N 37°14' E 003°12'2 8.7
2018-Apr-06 12:30N 37°13' E 003°10'11 8.7
2018-Apr-06 11:16N 37°11' E 002°57'3 9.1
2018-Apr-06 10:56N 37°10' E 002°53'4 9.0
2018-Apr-06 10:30N 37°10' E 002°48'8 8.9
2018-Apr-06 09:36N 37°08' E 002°38'1 9.0
2018-Apr-06 09:28N 37°08' E 002°37'4 9.1
2018-Apr-06 09:00N 37°07' E 002°32'5 9.2
2018-Apr-06 08:30N 37°06' E 002°26'5 9.4
2018-Apr-06 08:00N 37°06' E 002°20'5 9.5
2018-Apr-06 07:30N 37°05' E 002°14'5 9.5
2018-Apr-06 06:58N 37°04' E 002°08'612.3
2018-Apr-06 06:30N 37°02' E 002°01'713.8
2018-Apr-06 06:00N 37°01' E 001°53'5 9.2
2018-Apr-06 05:30N 37°00' E 001°47'6 8.9
2018-Apr-06 04:53N 36°59' E 001°40'3 9.0
2018-Apr-06 04:30N 36°58' E 001°36'5 9.0
2018-Apr-06 03:57N 36°57' E 001°30'10 9.1
2018-Apr-06 02:52N 36°55' E 001°18'7 9.2
2018-Apr-06 02:09N 36°54' E 001°10'1 9.0
2018-Apr-06 02:00N 36°54' E 001°08'18 8.5
2018-Apr-05 23:53N 36°49' E 000°46'3 8.4
2018-Apr-05 23:30N 36°49' E 000°43'6 8.2
2018-Apr-05 22:49N 36°47' E 000°36'284 9.7
2018-Apr-04 17:41N 36°01' W 005°12'213.2
2018-Apr-04 17:30N 36°01' W 005°15'713.6
2018-Apr-04 17:00N 36°04' W 005°23'2 2.8
2018-Apr-04 16:28N 36°05' W 005°24'0 0.1
2018-Apr-04 15:40N 36°05' W 005°24'0 0.1
2018-Apr-04 15:22N 36°05' W 005°24'0 0.1
2018-Apr-04 14:51N 36°05' W 005°24'0 0.1
2018-Apr-04 14:30N 36°05' W 005°24'0 0.1
2018-Apr-04 13:57N 36°05' W 005°24'0 0.1
2018-Apr-04 13:30N 36°05' W 005°24'0 0.0
2018-Apr-04 13:00N 36°05' W 005°24'0 0.0
2018-Apr-04 12:29N 36°05' W 005°24'0 0.1
2018-Apr-04 11:59N 36°05' W 005°24'0 0.1
2018-Apr-04 11:26N 36°05' W 005°24'0 0.0
2018-Apr-04 10:56N 36°05' W 005°24'0 0.3
2018-Apr-04 10:26N 36°05' W 005°24'0 0.2
2018-Apr-04 09:58N 36°05' W 005°24'0 0.0
2018-Apr-04 09:28N 36°05' W 005°24'0 0.1
2018-Apr-04 08:58N 36°05' W 005°24'0 0.1
2018-Apr-04 08:28N 36°05' W 005°24'0 0.8
2018-Apr-04 08:00N 36°05' W 005°24'3 6.8
2018-Apr-04 07:30N 36°01' W 005°23'5 9.3
2018-Apr-04 07:00N 35°58' W 005°27'  
Track history (hours):
 
Tides and Currents Weather Stations Pressure Air Temp Water Temp Dewpoint Dewpoint Depression Visibility Wind Speed Wind Dir Waves Ship Positions

Johann Jacob

Last reported at 2018-Apr-13 13:12 UTC. Time now 2018-Jun-25 00:30 UTC.
Position N 31°22' E 032°19'.
Warning: this ship's position is months out of date.

Length 227 m; draft 7.5 m.

Type: Tanker. MMSI: 636092124.

Date/timePositionNaut miles runAvg speedWind from/ knotsBaromVisibWave heightAir tempDewpointWater temp
2018-Apr-13 13:12N 31°22' E 032°19'0 1.4
2018-Apr-13 13:00N 31°22' E 032°19'6 5.8
2018-Apr-13 11:57N 31°28' E 032°17'6 9.6
2018-Apr-13 11:19N 31°32' E 032°12'2 7.5
2018-Apr-13 11:00N 31°34' E 032°10'1711.6
2018-Apr-13 09:30N 31°47' E 031°56'1611.9
2018-Apr-13 08:10N 31°59' E 031°44'212.0
2018-Apr-13 07:59N 32°01' E 031°42'  
2018-Apr-09 11:16N 36°09' E 014°43'414.5
2018-Apr-09 10:59N 36°10' E 014°38'510.1
2018-Apr-09 10:28N 36°12' E 014°32'712.9
2018-Apr-09 09:58N 36°14' E 014°24'511.3
2018-Apr-09 09:30N 36°15' E 014°18'713.5
2018-Apr-09 09:00N 36°17' E 014°10'611.7
2018-Apr-09 08:30N 36°20' E 014°04'611.8
2018-Apr-09 07:58N 36°22' E 013°57'612.1
2018-Apr-09 07:30N 36°25' E 013°50'713.3
2018-Apr-09 06:58N 36°27' E 013°42'1210.9
2018-Apr-09 05:52N 36°32' E 013°28'  
2018-Apr-06 18:07N 37°21' E 004°15'2 8.7
2018-Apr-06 17:56N 37°21' E 004°13'49 9.3
2018-Apr-06 12:43N 37°14' E 003°12'2 8.7
2018-Apr-06 12:30N 37°13' E 003°10'11 8.7
2018-Apr-06 11:16N 37°11' E 002°57'3 9.1
2018-Apr-06 10:56N 37°10' E 002°53'4 9.0
2018-Apr-06 10:30N 37°10' E 002°48'8 8.9
2018-Apr-06 09:36N 37°08' E 002°38'1 9.0
2018-Apr-06 09:28N 37°08' E 002°37'4 9.1
2018-Apr-06 09:00N 37°07' E 002°32'5 9.2
2018-Apr-06 08:30N 37°06' E 002°26'5 9.4
2018-Apr-06 08:00N 37°06' E 002°20'5 9.5
2018-Apr-06 07:30N 37°05' E 002°14'5 9.5
2018-Apr-06 06:58N 37°04' E 002°08'612.3
2018-Apr-06 06:30N 37°02' E 002°01'713.8
2018-Apr-06 06:00N 37°01' E 001°53'5 9.2
2018-Apr-06 05:30N 37°00' E 001°47'6 8.9
2018-Apr-06 04:53N 36°59' E 001°40'3 9.0
2018-Apr-06 04:30N 36°58' E 001°36'5 9.0
2018-Apr-06 03:57N 36°57' E 001°30'10 9.1
2018-Apr-06 02:52N 36°55' E 001°18'7 9.2
2018-Apr-06 02:09N 36°54' E 001°10'1 9.0
2018-Apr-06 02:00N 36°54' E 001°08'18 8.5
2018-Apr-05 23:53N 36°49' E 000°46'3 8.4
2018-Apr-05 23:30N 36°49' E 000°43'6 8.2
2018-Apr-05 22:49N 36°47' E 000°36'284 9.7
2018-Apr-04 17:41N 36°01' W 005°12'213.2
2018-Apr-04 17:30N 36°01' W 005°15'713.6
2018-Apr-04 17:00N 36°04' W 005°23'2 2.8
2018-Apr-04 16:28N 36°05' W 005°24'0 0.1
2018-Apr-04 15:40N 36°05' W 005°24'0 0.1
2018-Apr-04 15:22N 36°05' W 005°24'0 0.1
2018-Apr-04 14:51N 36°05' W 005°24'0 0.1
2018-Apr-04 14:30N 36°05' W 005°24'0 0.1
2018-Apr-04 13:57N 36°05' W 005°24'0 0.1
2018-Apr-04 13:30N 36°05' W 005°24'0 0.0
2018-Apr-04 13:00N 36°05' W 005°24'0 0.0
2018-Apr-04 12:29N 36°05' W 005°24'0 0.1
2018-Apr-04 11:59N 36°05' W 005°24'0 0.1
2018-Apr-04 11:26N 36°05' W 005°24'0 0.0
2018-Apr-04 10:56N 36°05' W 005°24'0 0.3
2018-Apr-04 10:26N 36°05' W 005°24'0 0.2
2018-Apr-04 09:58N 36°05' W 005°24'0 0.0
2018-Apr-04 09:28N 36°05' W 005°24'0 0.1
2018-Apr-04 08:58N 36°05' W 005°24'0 0.1
2018-Apr-04 08:28N 36°05' W 005°24'0 0.8
2018-Apr-04 08:00N 36°05' W 005°24'3 6.8
2018-Apr-04 07:30N 36°01' W 005°23'5 9.3
2018-Apr-04 07:00N 35°58' W 005°27'  

Dump ship's entire track history